Time;durP1;ratioP1;P1;durP2;ratioP2;P2;SDS_P1;SDS_P2;PMS_P1;PMS_P2;Temp;Humidity;BMP_temperature;BMP_pressure;BME280_temperature;BME280_humidity;BME280_pressure;Samples;Min_cycle;Max_cycle;Signal;HPM_P1;HPM_P2
2023/10/09 00:02:12;;;;;;;7.85;3.35;;;13.30;1.00;;;;;;4975386;28;20399;-85
2023/10/09 00:04:41;;;;;;;14.43;3.70;;;12.80;1.00;;;;;;4958272;28;21072;-86
2023/10/09 00:07:10;;;;;;;7.32;2.78;;;12.40;1.00;;;;;;4957679;28;20424;-85
2023/10/09 00:09:46;;;;;;;11.23;3.40;;;12.80;1.00;;;;;;4957888;28;20483;-86
2023/10/09 00:12:16;;;;;;;10.05;3.20;;;12.60;1.00;;;;;;4958454;28;20427;-86
2023/10/09 00:14:47;;;;;;;10.10;3.10;;;13.40;1.00;;;;;;4959297;28;20403;-86
2023/10/09 00:19:43;;;;;;;8.50;3.30;;;12.40;1.00;;;;;;4983805;28;20396;-86
2023/10/09 00:22:24;;;;;;;9.38;3.10;;;12.70;1.00;;;;;;4972650;28;20399;-87
2023/10/09 00:25:00;;;;;;;8.85;3.53;;;11.90;1.00;;;;;;4963719;28;20423;-86
2023/10/09 00:27:31;;;;;;;10.40;3.80;;;13.20;1.00;;;;;;4962989;28;20408;-86
2023/10/09 00:29:57;;;;;;;7.22;3.50;;;13.10;1.00;;;;;;4962668;28;20396;-86
2023/10/09 00:32:22;;;;;;;9.10;3.00;;;12.40;1.00;;;;;;4961846;28;20393;-86
2023/10/09 00:34:50;;;;;;;8.90;3.20;;;12.40;1.00;;;;;;4959949;28;20400;-85
2023/10/09 00:37:16;;;;;;;9.45;3.10;;;12.60;1.00;;;;;;4974718;28;20392;-86
2023/10/09 00:39:48;;;;;;;12.27;3.58;;;12.60;1.00;;;;;;4957095;28;20403;-86
2023/10/09 00:42:27;;;;;;;9.80;3.95;;;12.50;1.00;;;;;;4958698;28;20476;-86
2023/10/09 00:44:53;;;;;;;6.03;3.65;;;12.60;1.00;;;;;;4975682;28;20404;-86
2023/10/09 00:47:22;;;;;;;11.32;4.20;;;12.60;1.00;;;;;;4956946;28;20415;-86
2023/10/09 00:50:01;;;;;;;12.15;3.50;;;12.70;1.00;;;;;;4959309;28;20407;-86
2023/10/09 00:52:39;;;;;;;11.50;2.85;;;12.90;1.00;;;;;;4957209;28;20396;-86
2023/10/09 00:55:13;;;;;;;8.63;3.57;;;12.50;1.00;;;;;;4956704;28;20406;-86
2023/10/09 00:57:41;;;;;;;11.77;3.47;;;13.00;1.00;;;;;;4956998;28;20927;-86
2023/10/09 01:00:26;;;;;;;7.53;3.30;;;12.20;1.00;;;;;;4956804;28;20864;-86
2023/10/09 01:03:01;;;;;;;10.50;3.40;;;12.90;1.00;;;;;;4960944;28;20408;-85
2023/10/09 01:05:28;;;;;;;8.55;3.20;;;13.40;1.00;;;;;;4958332;28;20478;-86
2023/10/09 01:07:58;;;;;;;9.50;3.13;;;12.40;1.00;;;;;;4976096;28;20408;-86
2023/10/09 01:10:25;;;;;;;7.82;3.30;;;12.10;1.00;;;;;;4960770;28;20396;-86
2023/10/09 01:12:55;;;;;;;7.57;2.87;;;12.40;1.00;;;;;;4959112;28;20487;-85
2023/10/09 01:15:36;;;;;;;8.43;3.10;;;12.40;1.00;;;;;;4995029;28;20396;-85
2023/10/09 01:18:02;;;;;;;8.38;3.55;;;12.70;1.00;;;;;;4957691;28;20888;-85
2023/10/09 01:20:32;;;;;;;8.40;3.53;;;12.90;1.00;;;;;;4974507;28;20400;-86
2023/10/09 01:23:01;;;;;;;7.03;3.47;;;12.90;1.00;;;;;;4956077;28;20404;-86
2023/10/09 01:25:38;;;;;;;9.68;3.90;;;12.80;1.00;;;;;;4975129;28;20381;-86
2023/10/09 01:28:04;;;;;;;11.98;3.53;;;12.90;1.00;;;;;;4974027;28;20467;-85
2023/10/09 01:30:33;;;;;;;8.40;3.00;;;12.80;1.00;;;;;;4959844;28;20380;-86
2023/10/09 01:33:11;;;;;;;9.20;3.22;;;12.90;1.00;;;;;;4959559;28;20388;-86
2023/10/09 01:35:46;;;;;;;12.38;3.50;;;13.00;1.00;;;;;;4959285;28;20400;-86
2023/10/09 01:38:13;;;;;;;6.75;3.20;;;12.60;1.00;;;;;;4957982;28;20393;-85
2023/10/09 01:40:39;;;;;;;7.10;2.85;;;12.90;1.00;;;;;;4957744;28;20393;-86
2023/10/09 01:43:05;;;;;;;9.43;3.20;;;12.50;1.00;;;;;;4956143;28;20466;-86
2023/10/09 01:45:41;;;;;;;10.77;3.70;;;12.90;1.00;;;;;;4955432;28;20396;-86
2023/10/09 01:48:08;;;;;;;6.78;3.33;;;12.30;1.00;;;;;;4956092;28;20451;-86
2023/10/09 01:50:35;;;;;;;12.15;4.30;;;13.10;1.00;;;;;;4972818;28;20927;-86
2023/10/09 01:53:02;;;;;;;6.68;2.92;;;12.10;1.00;;;;;;4979133;23;20457;-77
2023/10/09 01:55:34;;;;;;;8.85;2.92;;;13.20;1.00;;;;;;4990911;28;20774;-77
2023/10/09 01:58:05;;;;;;;10.52;3.20;;;12.90;1.00;;;;;;4991550;28;20391;-77
2023/10/09 02:00:35;;;;;;;6.90;3.25;;;12.90;1.00;;;;;;4973630;28;20902;-77
2023/10/09 02:03:04;;;;;;;9.75;3.40;;;13.00;1.00;;;;;;4991074;28;20406;-77
2023/10/09 02:05:33;;;;;;;11.00;3.65;;;13.00;1.00;;;;;;4991637;28;20453;-77
2023/10/09 02:07:59;;;;;;;8.50;3.67;;;13.00;1.00;;;;;;4973720;28;20921;-77
2023/10/09 02:12:57;;;;;;;6.47;2.63;;;12.80;1.00;;;;;;4991088;28;20390;-77
2023/10/09 02:21:12;;;;;;;10.45;3.20;;;12.80;1.00;;;;;;4992451;28;20477;-77
2023/10/09 02:23:51;;;;;;;11.48;3.90;;;12.90;1.00;;;;;;4991615;28;20378;-77
2023/10/09 02:26:39;;;;;;;8.00;3.37;;;12.80;1.00;;;;;;4974876;28;20394;-77
2023/10/09 02:29:15;;;;;;;6.65;3.17;;;12.80;1.00;;;;;;4974044;28;20453;-77
2023/10/09 02:31:41;;;;;;;12.65;4.05;;;12.80;1.00;;;;;;4991098;28;20457;-78
2023/10/09 02:34:10;;;;;;;6.32;2.50;;;12.70;1.00;;;;;;4991074;28;20386;-78
2023/10/09 02:36:42;;;;;;;9.88;2.72;;;12.60;1.00;;;;;;4991094;28;20397;-78
2023/10/09 02:39:22;;;;;;;11.57;3.30;;;12.70;1.00;;;;;;4973344;28;20449;-78
2023/10/09 02:41:54;;;;;;;9.63;3.10;;;12.70;1.00;;;;;;4991432;28;20511;-78
2023/10/09 02:44:24;;;;;;;9.75;3.00;;;12.70;1.00;;;;;;4973645;28;20398;-78
2023/10/09 02:46:50;;;;;;;5.93;2.97;;;12.60;1.00;;;;;;4991620;28;20453;-78
2023/10/09 02:49:16;;;;;;;8.23;3.30;;;12.40;1.00;;;;;;4973782;28;20434;-78
2023/10/09 02:51:47;;;;;;;9.03;3.30;;;12.40;1.00;;;;;;4992038;28;20906;-78
2023/10/09 02:59:34;;;;;;;8.75;3.15;;;12.40;1.00;;;;;;4992060;28;20408;-78
2023/10/09 03:01:59;;;;;;;5.97;3.13;;;12.40;1.00;;;;;;4991571;28;20433;-78
2023/10/09 03:04:30;;;;;;;11.70;3.03;;;12.40;1.00;;;;;;4992051;28;20386;-78
2023/10/09 03:06:57;;;;;;;10.57;3.47;;;12.50;1.00;;;;;;4991792;28;20428;-78
2023/10/09 03:09:27;;;;;;;7.50;3.15;;;12.40;1.00;;;;;;4992248;28;20390;-78
2023/10/09 03:11:54;;;;;;;11.23;3.60;;;12.50;1.00;;;;;;4991690;28;20895;-78
2023/10/09 03:14:26;;;;;;;10.35;3.20;;;12.50;1.00;;;;;;4974517;28;20458;-78
2023/10/09 03:16:58;;;;;;;8.65;3.13;;;12.30;1.00;;;;;;4974880;28;20410;-78
2023/10/09 03:19:26;;;;;;;8.73;3.07;;;12.60;1.00;;;;;;4991470;28;20406;-78
2023/10/09 03:21:52;;;;;;;9.70;3.20;;;12.30;1.00;;;;;;4992587;28;20402;-77
2023/10/09 03:24:17;;;;;;;7.60;3.40;;;12.40;1.00;;;;;;4999431;28;20474;-78
2023/10/09 03:26:45;;;;;;;7.43;3.37;;;12.30;1.00;;;;;;4999197;28;20510;-78
2023/10/09 03:29:11;;;;;;;10.27;3.22;;;12.40;1.00;;;;;;4994485;28;20448;-78
2023/10/09 03:31:37;;;;;;;7.53;3.40;;;12.40;1.00;;;;;;4992010;28;20394;-78
2023/10/09 03:34:04;;;;;;;8.48;3.30;;;12.50;1.00;;;;;;4974479;28;20934;-78
2023/10/09 03:36:37;;;;;;;9.80;3.33;;;12.20;1.00;;;;;;4992546;28;20444;-78
2023/10/09 03:39:17;;;;;;;8.00;3.50;;;12.50;1.00;;;;;;4974728;28;20441;-78
2023/10/09 03:41:46;;;;;;;11.23;3.20;;;12.50;1.00;;;;;;4991872;28;20387;-78
2023/10/09 03:44:13;;;;;;;6.97;3.00;;;12.50;1.00;;;;;;4975566;28;20405;-78
2023/10/09 03:46:44;;;;;;;7.65;3.60;;;12.70;1.00;;;;;;4996016;28;20480;-78
2023/10/09 03:49:11;;;;;;;8.73;3.22;;;12.40;1.00;;;;;;4995978;28;20382;-78
2023/10/09 03:51:37;;;;;;;7.43;3.72;;;12.60;1.00;;;;;;4995944;28;20442;-78
2023/10/09 03:54:07;;;;;;;8.52;2.90;;;12.30;1.00;;;;;;4994860;28;20814;-78
2023/10/09 03:56:33;;;;;;;9.23;3.40;;;13.00;1.00;;;;;;4975692;28;20426;-77
2023/10/09 03:58:59;;;;;;;8.30;3.63;;;12.50;1.00;;;;;;4994938;28;20394;-77
2023/10/09 04:01:37;;;;;;;11.15;3.47;;;12.40;1.00;;;;;;4975898;28;20387;-77
2023/10/09 04:04:05;;;;;;;6.57;3.08;;;12.60;1.00;;;;;;5001358;28;20950;-77
2023/10/09 04:06:34;;;;;;;7.47;3.10;;;12.60;1.00;;;;;;4997614;28;20429;-78
2023/10/09 04:11:57;;;;;;;8.93;3.43;;;12.30;1.00;;;;;;4996101;28;20492;-78
2023/10/09 04:14:33;;;;;;;8.95;3.50;;;12.20;1.00;;;;;;5003731;28;20385;-78
2023/10/09 04:20:37;;;;;;;5.63;2.70;;;12.20;1.00;;;;;;4990009;28;20746;-77
2023/10/09 04:25:41;;;;;;;6.93;3.50;;;12.50;1.00;;;;;;4983318;28;20399;-78
2023/10/09 04:30:42;;;;;;;8.07;3.28;;;12.30;1.00;;;;;;5002568;28;20398;-77
2023/10/09 04:33:42;;;;;;;8.50;3.80;;;12.30;1.00;;;;;;5001626;28;20421;-77
2023/10/09 04:44:35;;;;;;;10.95;3.75;;;12.00;1.00;;;;;;4997698;28;20413;-78
2023/10/09 04:52:19;;;;;;;9.70;3.85;;;12.20;1.00;;;;;;4996006;28;20957;-78
2023/10/09 04:57:37;;;;;;;9.00;3.63;;;12.20;1.00;;;;;;4993396;28;20398;-78
2023/10/09 05:00:22;;;;;;;5.43;4.10;;;12.20;1.00;;;;;;4994417;28;20402;-79
2023/10/09 05:02:54;;;;;;;10.80;3.80;;;12.50;1.00;;;;;;4994287;28;20398;-77
2023/10/09 05:08:20;;;;;;;8.57;3.75;;;12.30;1.00;;;;;;4994582;28;20421;-78
2023/10/09 05:16:18;;;;;;;11.00;4.00;;;12.40;1.00;;;;;;4993880;28;20448;-78
2023/10/09 05:18:56;;;;;;;13.25;4.28;;;12.10;1.00;;;;;;4989078;28;20438;-78
2023/10/09 05:21:36;;;;;;;6.75;3.65;;;12.40;1.00;;;;;;4993412;28;20402;-78
2023/10/09 05:26:49;;;;;;;10.77;4.00;;;12.40;1.00;;;;;;4993934;28;20421;-78
2023/10/09 05:29:19;;;;;;;7.85;3.95;;;12.30;1.00;;;;;;4994151;28;20386;-78
2023/10/09 05:32:15;;;;;;;8.40;3.17;;;12.30;1.00;;;;;;4993196;28;20397;-78
2023/10/09 05:37:32;;;;;;;9.52;3.53;;;12.20;1.00;;;;;;4999839;28;20515;-78
2023/10/09 05:42:42;;;;;;;8.07;3.70;;;12.60;1.00;;;;;;4998720;28;20390;-79
2023/10/09 05:47:53;;;;;;;7.45;3.50;;;12.10;1.00;;;;;;4993851;28;20465;-79
2023/10/09 06:03:16;;;;;;;12.88;3.70;;;12.00;1.00;;;;;;5000788;28;20402;-76
2023/10/09 06:03:54;;;;;;;13.05;4.05;;;12.20;1.00;;;;;;4997270;28;20851;-80
2023/10/09 06:11:41;;;;;;;8.60;3.50;;;12.20;1.00;;;;;;4993011;28;20444;-78
2023/10/09 06:19:11;;;;;;;8.43;3.83;;;12.40;1.00;;;;;;4991292;28;20389;-78
2023/10/09 06:24:19;;;;;;;10.25;3.65;;;12.60;1.00;;;;;;4991771;28;20461;-77
2023/10/09 06:29:50;;;;;;;11.07;3.90;;;12.70;1.00;;;;;;4991876;28;20401;-77
2023/10/09 06:34:46;;;;;;;7.97;3.13;;;12.80;1.00;;;;;;4991942;28;20383;-78
2023/10/09 06:38:21;;;;;;;11.00;4.07;;;12.90;1.00;;;;;;4991662;28;20520;-78
2023/10/09 06:41:17;;;;;;;8.10;3.58;;;13.20;1.00;;;;;;4982993;28;20770;-77
2023/10/09 06:42:55;;;;;;;7.00;3.38;;;13.10;1.00;;;;;;4991922;28;20494;-77
2023/10/09 06:45:21;;;;;;;13.05;3.92;;;13.20;1.00;;;;;;4999463;28;20422;-77
2023/10/09 06:48:09;;;;;;;9.77;3.67;;;13.00;1.00;;;;;;4996063;28;20493;-77
2023/10/09 06:53:20;;;;;;;10.63;3.10;;;13.30;1.00;;;;;;4995927;28;20790;-77
2023/10/09 06:55:49;;;;;;;6.93;3.30;;;13.40;1.00;;;;;;4992521;28;20457;-78
2023/10/09 06:58:41;;;;;;;9.45;4.20;;;13.40;1.00;;;;;;4973219;28;20398;-78
2023/10/09 07:01:19;;;;;;;13.20;3.15;;;13.40;1.00;;;;;;4971602;28;20806;-77
2023/10/09 07:03:59;;;;;;;7.53;3.13;;;13.30;1.00;;;;;;4973139;28;20490;-78
2023/10/09 07:09:22;;;;;;;7.40;3.47;;;13.90;1.00;;;;;;4990903;28;20425;-77
2023/10/09 07:17:01;;;;;;;12.48;4.22;;;13.20;1.00;;;;;;4995285;28;20493;-78
2023/10/09 07:22:16;;;;;;;10.73;3.80;;;13.00;1.00;;;;;;5004185;28;20411;-77
2023/10/09 07:24:49;;;;;;;8.02;3.58;;;13.30;1.00;;;;;;4976807;28;20470;-77
2023/10/09 07:27:43;;;;;;;8.68;3.78;;;13.80;1.00;;;;;;5003611;28;20786;-78
2023/10/09 07:32:54;;;;;;;10.90;4.30;;;13.40;1.00;;;;;;4988544;28;20445;-77
2023/10/09 07:35:46;;;;;;;8.27;3.75;;;13.30;1.00;;;;;;4976975;28;20425;-78
2023/10/09 07:38:09;;;;;;;8.48;3.80;;;13.30;1.00;;;;;;4994456;28;20878;-78
2023/10/09 07:43:28;;;;;;;15.40;4.05;;;13.50;1.00;;;;;;4994277;28;20478;-78
2023/10/09 07:46:30;;;;;;;11.00;4.13;;;13.60;1.00;;;;;;4976736;28;20409;-78
2023/10/09 07:48:52;;;;;;;7.57;3.15;;;13.60;1.00;;;;;;4994954;28;20477;-78
2023/10/09 07:51:30;;;;;;;8.95;3.40;;;13.50;1.00;;;;;;4994735;28;20429;-78
2023/10/09 07:53:57;;;;;;;9.50;4.40;;;13.60;1.00;;;;;;4994933;28;20509;-78
2023/10/09 07:56:30;;;;;;;6.57;3.90;;;14.30;1.00;;;;;;4995133;28;20894;-78
2023/10/09 07:59:00;;;;;;;7.60;4.03;;;13.80;1.00;;;;;;4994998;28;20747;-78
2023/10/09 08:01:35;;;;;;;9.43;3.63;;;13.80;1.00;;;;;;4994563;28;20405;-78
2023/10/09 08:04:05;;;;;;;10.82;3.50;;;14.10;1.00;;;;;;4994744;28;20445;-78
2023/10/09 08:06:39;;;;;;;9.00;4.10;;;14.00;1.00;;;;;;4995722;28;20394;-78
2023/10/09 08:17:11;;;;;;;13.65;5.05;;;14.30;1.00;;;;;;4994418;28;20409;-78
2023/10/09 08:19:51;;;;;;;6.90;3.65;;;14.60;1.00;;;;;;4994747;28;20474;-78
2023/10/09 08:24:59;;;;;;;10.05;4.03;;;14.50;1.00;;;;;;4994657;28;20822;-78
2023/10/09 08:27:46;;;;;;;9.25;3.75;;;14.80;1.00;;;;;;4994221;28;20442;-78
2023/10/09 08:30:28;;;;;;;10.77;3.40;;;14.90;1.00;;;;;;4976778;28;20386;-78
2023/10/09 08:33:03;;;;;;;10.50;3.30;;;14.90;1.00;;;;;;4993602;28;20390;-78
2023/10/09 08:35:49;;;;;;;8.82;3.67;;;14.80;1.00;;;;;;4994316;28;20389;-78
2023/10/09 08:38:23;;;;;;;9.38;3.50;;;14.80;1.00;;;;;;4976402;28;20886;-78
2023/10/09 08:40:50;;;;;;;9.82;3.45;;;15.00;1.00;;;;;;4976281;28;20386;-78
2023/10/09 08:43:19;;;;;;;11.43;3.60;;;14.80;1.00;;;;;;4993122;28;20395;-77
2023/10/09 08:45:47;;;;;;;11.33;4.10;;;14.90;1.00;;;;;;5001026;28;20391;-77
2023/10/09 08:48:15;;;;;;;10.80;3.55;;;15.10;1.00;;;;;;4984023;28;20497;-78
2023/10/09 08:50:50;;;;;;;10.63;3.30;;;15.10;1.00;;;;;;4993601;28;20386;-78
2023/10/09 08:53:16;;;;;;;11.82;3.50;;;15.40;1.00;;;;;;4992734;28;20402;-78
2023/10/09 08:55:43;;;;;;;8.63;2.90;;;15.60;1.00;;;;;;4993417;28;20469;-78
2023/10/09 08:58:20;;;;;;;10.57;3.25;;;16.00;1.00;;;;;;4993378;28;20456;-78
2023/10/09 09:00:47;;;;;;;12.15;3.10;;;16.20;1.00;;;;;;4993351;28;20401;-77
2023/10/09 09:03:17;;;;;;;10.95;4.20;;;16.10;1.00;;;;;;4975738;28;20398;-78
2023/10/09 09:05:49;;;;;;;7.85;3.60;;;16.40;1.00;;;;;;4993469;28;20394;-77
2023/10/09 09:08:29;;;;;;;10.00;3.58;;;16.80;1.00;;;;;;4994549;28;20406;-77
2023/10/09 09:14:18;;;;;;;6.38;3.22;;;17.60;1.00;;;;;;4971748;28;20499;-78
2023/10/09 09:16:48;;;;;;;6.07;2.90;;;17.80;1.00;;;;;;4954910;28;20408;-77
2023/10/09 09:21:48;;;;;;;10.95;3.20;;;18.30;1.00;;;;;;4984759;28;20973;-78
2023/10/09 09:26:46;;;;;;;8.60;3.22;;;18.50;1.00;;;;;;4992494;28;20414;-78
2023/10/09 09:29:19;;;;;;;7.63;2.90;;;18.80;1.00;;;;;;4975096;28;20390;-77
2023/10/09 09:32:15;;;;;;;10.00;3.45;;;19.40;1.00;;;;;;4992309;28;20815;-77
2023/10/09 09:34:54;;;;;;;11.18;3.00;;;19.20;1.00;;;;;;4992385;28;20391;-78
2023/10/09 09:37:28;;;;;;;10.65;3.38;;;19.20;1.00;;;;;;4993166;28;20486;-78
2023/10/09 09:39:57;;;;;;;10.43;3.57;;;19.50;1.00;;;;;;4993040;28;21068;-77
2023/10/09 09:42:27;;;;;;;6.63;2.80;;;20.80;1.00;;;;;;4992622;28;20879;-79
2023/10/09 09:44:53;;;;;;;9.30;3.17;;;20.00;1.00;;;;;;4976314;28;20835;-79
2023/10/09 09:47:26;;;;;;;8.27;2.83;;;21.30;1.00;;;;;;4993556;28;20410;-79
2023/10/09 09:50:11;;;;;;;10.23;2.88;;;20.20;1.00;;;;;;4975774;28;20405;-79
2023/10/09 09:52:39;;;;;;;7.22;2.90;;;20.50;1.00;;;;;;4975163;28;20387;-79
2023/10/09 09:55:16;;;;;;;9.98;2.83;;;20.20;1.00;;;;;;4993754;28;20901;-79
2023/10/09 09:57:45;;;;;;;8.15;3.85;;;20.80;1.00;;;;;;4993541;28;20756;-79
2023/10/09 10:00:57;;;;;;;6.93;3.25;;;21.20;1.00;;;;;;4992932;28;20461;-79
2023/10/09 10:03:28;;;;;;;7.32;3.10;;;21.10;1.00;;;;;;4981875;28;20491;-79
2023/10/09 10:05:56;;;;;;;8.65;3.15;;;20.90;1.00;;;;;;4973644;28;20402;-79
2023/10/09 10:08:31;;;;;;;12.02;3.20;;;22.30;1.00;;;;;;4993359;28;20505;-78
2023/10/09 10:11:06;;;;;;;10.63;3.50;;;21.10;1.00;;;;;;4975877;28;20395;-79
2023/10/09 10:13:40;;;;;;;8.90;3.28;;;21.50;1.00;;;;;;4992677;28;20398;-79
2023/10/09 10:21:49;;;;;;;9.95;3.60;;;21.90;1.00;;;;;;4993521;28;20396;-78
2023/10/09 10:24:35;;;;;;;13.45;3.90;;;22.10;1.00;;;;;;4975847;28;20818;-78
2023/10/09 10:27:18;;;;;;;10.82;3.28;;;22.20;1.00;;;;;;4993207;28;20410;-79
2023/10/09 10:29:45;;;;;;;10.40;3.45;;;21.90;1.00;;;;;;4973679;28;20467;-79
2023/10/09 10:32:12;;;;;;;8.35;2.90;;;22.10;1.00;;;;;;4973444;28;20391;-79
2023/10/09 10:34:49;;;;;;;10.85;3.65;;;21.90;1.00;;;;;;4955783;28;20398;-78
2023/10/09 10:37:15;;;;;;;10.50;3.40;;;22.20;1.00;;;;;;4958347;28;20456;-79
2023/10/09 10:39:50;;;;;;;12.90;3.87;;;22.80;1.00;;;;;;4981076;28;20945;-79
2023/10/09 10:42:34;;;;;;;14.00;3.60;;;23.40;1.00;;;;;;4998081;28;20426;-78
2023/10/09 10:45:02;;;;;;;11.02;3.70;;;23.80;1.00;;;;;;4997964;28;20386;-78
2023/10/09 10:47:34;;;;;;;12.50;3.88;;;23.30;1.00;;;;;;4975518;28;20434;-78
2023/10/09 10:50:34;;;;;;;9.45;3.50;;;23.20;1.00;;;;;;4992793;28;20469;-78
2023/10/09 10:53:16;;;;;;;8.82;2.80;;;23.40;1.00;;;;;;4995018;28;20407;-78
2023/10/09 11:04:24;;;;;;;9.20;3.47;;;24.60;1.00;;;;;;4996445;28;20446;-79
2023/10/09 11:07:20;;;;;;;8.73;3.22;;;24.50;1.00;;;;;;4996150;28;20406;-79
2023/10/09 11:12:44;;;;;;;9.02;3.30;;;24.30;1.00;;;;;;4996175;28;20417;-79
2023/10/09 11:18:25;;;;;;;8.80;3.13;;;25.00;1.00;;;;;;4996328;28;20969;-79
2023/10/09 11:29:16;;;;;;;8.75;3.85;;;25.50;1.00;;;;;;5005675;28;20938;-78
2023/10/09 11:31:57;;;;;;;9.23;3.53;;;25.40;1.00;;;;;;4993470;28;20509;-77
2023/10/09 11:34:29;;;;;;;10.10;3.30;;;25.70;1.00;;;;;;4989776;28;20394;-77
2023/10/09 11:37:15;;;;;;;10.47;3.37;;;25.50;1.00;;;;;;4988460;28;20434;-80
2023/10/09 11:39:50;;;;;;;9.35;3.60;;;26.00;1.00;;;;;;4988683;28;20426;-79
2023/10/09 11:45:24;;;;;;;11.70;3.60;;;25.40;1.00;;;;;;4989532;28;20388;-78
2023/10/09 11:47:59;;;;;;;10.35;3.72;;;25.00;1.00;;;;;;4991303;28;20449;-79
2023/10/09 11:51:16;;;;;;;11.00;3.78;;;25.10;1.00;;;;;;4990468;28;20387;-79
2023/10/09 11:53:43;;;;;;;6.57;2.83;;;25.40;1.00;;;;;;4994073;28;20485;-79
2023/10/09 11:56:13;;;;;;;5.43;3.03;;;25.80;1.00;;;;;;4999083;28;20479;-79
2023/10/09 11:58:40;;;;;;;6.63;2.97;;;25.40;1.00;;;;;;4977617;28;20424;-78
2023/10/09 12:01:17;;;;;;;9.35;3.30;;;24.90;1.00;;;;;;4993396;28;20417;-76
2023/10/09 12:03:44;;;;;;;8.43;3.47;;;25.30;1.00;;;;;;4994041;28;20906;-76
2023/10/09 12:06:13;;;;;;;10.43;3.88;;;25.70;1.00;;;;;;4992589;28;20778;-77
2023/10/09 12:08:41;;;;;;;12.02;4.10;;;25.00;1.00;;;;;;4997759;28;20788;-77
2023/10/09 12:11:11;;;;;;;10.25;3.33;;;25.20;1.00;;;;;;4998730;28;20399;-77
2023/10/09 12:13:38;;;;;;;8.18;3.28;;;25.00;1.00;;;;;;4980357;28;20437;-77
2023/10/09 12:16:10;;;;;;;12.27;3.80;;;25.50;1.00;;;;;;4994989;28;20426;-77
2023/10/09 12:18:39;;;;;;;8.43;3.72;;;24.90;1.00;;;;;;4996247;28;20503;-77
2023/10/09 12:21:06;;;;;;;8.52;3.50;;;25.20;1.00;;;;;;4996459;28;20812;-77
2023/10/09 12:23:37;;;;;;;7.97;3.33;;;24.60;1.00;;;;;;4975579;28;20401;-77
2023/10/09 12:26:04;;;;;;;8.70;3.83;;;24.70;1.00;;;;;;4975920;28;20398;-77
2023/10/09 12:28:32;;;;;;;10.55;3.63;;;25.20;1.00;;;;;;4973845;28;20798;-78
2023/10/09 12:31:01;;;;;;;11.68;3.40;;;24.40;1.00;;;;;;4990952;28;20397;-78
2023/10/09 12:33:27;;;;;;;9.45;3.88;;;24.60;1.00;;;;;;4989235;28;20384;-76
2023/10/09 12:35:59;;;;;;;8.93;3.20;;;24.90;1.00;;;;;;4986917;28;20418;-77
2023/10/09 12:38:31;;;;;;;9.18;3.60;;;24.50;1.00;;;;;;4987123;28;20402;-77
2023/10/09 12:41:33;;;;;;;10.70;3.80;;;24.70;1.00;;;;;;4990821;28;20545;-78
2023/10/09 12:43:54;;;;;;;9.80;3.38;;;24.70;1.00;;;;;;4986713;28;20418;-78
2023/10/09 12:46:25;;;;;;;10.30;3.70;;;24.60;1.00;;;;;;4971931;28;20438;-77
2023/10/09 12:48:57;;;;;;;9.85;3.90;;;25.40;1.00;;;;;;4971508;28;20422;-77
2023/10/09 12:51:29;;;;;;;11.55;3.00;;;25.20;1.00;;;;;;4998797;28;20392;-76
2023/10/09 12:53:58;;;;;;;7.15;3.47;;;26.30;1.00;;;;;;5001157;28;20869;-76
2023/10/09 12:56:32;;;;;;;8.32;3.10;;;25.90;1.00;;;;;;4982816;28;20413;-78
2023/10/09 12:59:01;;;;;;;8.97;3.23;;;26.10;1.00;;;;;;4973357;28;20399;-78
2023/10/09 13:01:31;;;;;;;8.40;3.50;;;26.40;1.00;;;;;;4987878;28;20465;-78
2023/10/09 13:03:59;;;;;;;8.80;3.60;;;25.30;1.00;;;;;;4993664;28;20396;-78
2023/10/09 13:06:25;;;;;;;7.68;3.50;;;26.50;1.00;;;;;;4997698;28;20378;-78
2023/10/09 13:08:51;;;;;;;7.82;3.50;;;25.80;1.00;;;;;;4998627;28;20408;-78
2023/10/09 13:11:18;;;;;;;11.05;3.95;;;26.90;1.00;;;;;;4996694;28;20417;-78
2023/10/09 13:13:46;;;;;;;10.73;4.50;;;26.60;1.00;;;;;;4991992;28;20790;-78
2023/10/09 13:16:22;;;;;;;9.43;3.47;;;27.00;1.00;;;;;;4991020;28;20390;-78
2023/10/09 13:18:51;;;;;;;7.63;3.60;;;26.30;1.00;;;;;;4997116;28;20944;-78
2023/10/09 13:21:22;;;;;;;11.75;3.50;;;26.40;1.00;;;;;;4995456;28;20461;-77
2023/10/09 13:23:50;;;;;;;8.85;3.38;;;27.10;1.00;;;;;;4992020;28;20402;-78
2023/10/09 13:26:17;;;;;;;9.82;3.90;;;27.20;1.00;;;;;;4992856;28;20406;-78
2023/10/09 13:28:46;;;;;;;9.40;3.28;;;28.10;1.00;;;;;;4995799;28;20920;-78
2023/10/09 13:31:15;;;;;;;8.32;4.20;;;28.50;1.00;;;;;;4987410;28;20772;-78
2023/10/09 13:33:42;;;;;;;7.22;3.10;;;27.90;1.00;;;;;;4983589;28;20585;-78
2023/10/09 13:36:19;;;;;;;9.85;3.28;;;27.20;1.00;;;;;;4989506;28;20386;-78
2023/10/09 13:38:45;;;;;;;13.70;3.40;;;27.30;1.00;;;;;;4989976;28;20387;-78
2023/10/09 13:41:17;;;;;;;9.15;3.45;;;28.10;1.00;;;;;;4972647;28;20779;-78
2023/10/09 13:43:43;;;;;;;7.60;3.30;;;27.50;1.00;;;;;;5001030;28;20468;-78
2023/10/09 13:46:11;;;;;;;9.87;3.40;;;27.40;1.00;;;;;;5008540;28;20939;-78
2023/10/09 13:48:41;;;;;;;10.25;3.30;;;27.40;1.00;;;;;;5013130;28;20412;-79
2023/10/09 13:51:09;;;;;;;10.02;3.40;;;27.40;1.00;;;;;;5009263;28;20811;-79
2023/10/09 13:53:35;;;;;;;8.35;3.30;;;27.80;1.00;;;;;;5001609;23;20565;-85
2023/10/09 13:56:02;;;;;;;9.30;3.50;;;28.10;1.00;;;;;;4996386;28;20440;-84
2023/10/09 13:58:28;;;;;;;10.50;4.03;;;26.30;1.00;;;;;;5003108;28;20526;-84
2023/10/09 14:00:53;;;;;;;9.88;3.47;;;28.00;1.00;;;;;;5019176;28;20750;-85
2023/10/09 14:03:23;;;;;;;8.17;3.40;;;28.80;1.00;;;;;;4997841;28;20427;-85
2023/10/09 14:05:54;;;;;;;5.97;3.13;;;29.70;1.00;;;;;;4996015;28;20393;-86
2023/10/09 14:08:22;;;;;;;9.55;3.67;;;28.80;1.00;;;;;;5001856;28;20779;-86
2023/10/09 14:10:51;;;;;;;10.50;4.10;;;29.00;1.00;;;;;;4987343;28;20395;-87
2023/10/09 14:13:25;;;;;;;9.45;3.45;;;28.10;1.00;;;;;;4991093;28;20493;-86
2023/10/09 14:15:51;;;;;;;8.05;3.30;;;29.30;1.00;;;;;;5001069;28;20901;-86
2023/10/09 14:18:17;;;;;;;8.88;3.70;;;28.80;1.00;;;;;;4998504;28;20399;-86
2023/10/09 14:20:43;;;;;;;8.60;3.70;;;27.70;1.00;;;;;;4975718;28;20736;-86
2023/10/09 14:23:12;;;;;;;13.05;4.22;;;26.80;1.00;;;;;;4974582;28;20407;-86
2023/10/09 14:25:39;;;;;;;10.10;3.20;;;27.00;1.00;;;;;;4990306;28;20383;-86
2023/10/09 14:28:09;;;;;;;8.68;4.03;;;26.80;1.00;;;;;;4973226;28;20961;-85
2023/10/09 14:30:41;;;;;;;13.88;3.70;;;26.20;1.00;;;;;;4974306;28;20822;-85
2023/10/09 14:33:12;;;;;;;9.45;3.90;;;27.00;1.00;;;;;;4976489;28;20390;-85
2023/10/09 14:35:42;;;;;;;11.98;3.70;;;26.00;1.00;;;;;;4975785;28;20394;-85
2023/10/09 14:38:15;;;;;;;8.02;3.90;;;25.70;1.00;;;;;;4974630;28;20406;-86
2023/10/09 14:40:44;;;;;;;8.60;3.70;;;26.50;1.00;;;;;;4992348;28;20406;-85
2023/10/09 14:43:18;;;;;;;9.65;3.60;;;25.30;1.00;;;;;;5000623;28;20410;-86
2023/10/09 14:45:48;;;;;;;9.52;3.63;;;25.50;1.00;;;;;;4985654;28;20394;-85
2023/10/09 14:48:18;;;;;;;9.23;3.28;;;24.70;1.00;;;;;;4998706;28;20474;-87
2023/10/09 14:50:53;;;;;;;14.07;4.20;;;24.80;1.00;;;;;;4979987;28;20503;-85
2023/10/09 14:53:19;;;;;;;9.80;4.00;;;25.90;1.00;;;;;;4990871;28;20383;-86
2023/10/09 14:55:47;;;;;;;8.45;4.18;;;25.10;1.00;;;;;;5002397;28;20397;-86
2023/10/09 14:58:13;;;;;;;8.13;3.20;;;26.10;1.00;;;;;;4973388;28;20398;-86
2023/10/09 15:00:45;;;;;;;10.13;3.73;;;26.20;1.00;;;;;;4973791;28;20417;-86
2023/10/09 15:03:14;;;;;;;9.27;3.70;;;25.60;1.00;;;;;;4991012;28;20489;-86
2023/10/09 15:05:42;;;;;;;11.07;3.78;;;25.00;1.00;;;;;;4973979;28;20406;-86
2023/10/09 15:08:11;;;;;;;11.63;4.15;;;24.10;1.00;;;;;;4973978;28;20411;-86
2023/10/09 15:10:51;;;;;;;14.80;4.27;;;25.40;1.00;;;;;;4973855;28;20409;-86
2023/10/09 15:13:19;;;;;;;14.75;4.20;;;23.80;1.00;;;;;;4970419;28;20482;-86
2023/10/09 15:15:45;;;;;;;7.17;3.70;;;24.80;1.00;;;;;;4969126;28;20398;-86
2023/10/09 15:18:12;;;;;;;12.33;4.20;;;24.30;1.00;;;;;;4984178;28;20436;-86
2023/10/09 15:20:39;;;;;;;12.18;4.20;;;23.90;1.00;;;;;;4974561;28;20421;-86
2023/10/09 15:23:05;;;;;;;12.10;4.45;;;23.30;1.00;;;;;;4955315;28;20474;-87
2023/10/09 15:25:31;;;;;;;10.70;4.30;;;23.50;1.00;;;;;;4966127;28;20807;-86
2023/10/09 15:27:57;;;;;;;13.10;4.53;;;23.50;1.00;;;;;;4957229;28;20463;-86
2023/10/09 15:30:23;;;;;;;9.00;4.00;;;24.80;1.00;;;;;;4955066;28;20446;-86
2023/10/09 15:32:51;;;;;;;7.22;3.80;;;24.20;1.00;;;;;;4955267;28;20789;-86
2023/10/09 15:35:18;;;;;;;8.68;3.90;;;23.80;1.00;;;;;;4963437;28;20401;-86
2023/10/09 15:37:45;;;;;;;8.77;3.88;;;23.30;1.00;;;;;;4990896;28;20490;-86
2023/10/09 15:40:14;;;;;;;10.98;3.78;;;23.10;1.00;;;;;;4974033;28;20387;-86
2023/10/09 15:42:55;;;;;;;8.43;3.50;;;23.20;1.00;;;;;;4967550;28;20400;-86
2023/10/09 15:45:21;;;;;;;13.15;4.38;;;24.00;1.00;;;;;;4969152;28;20965;-86
2023/10/09 15:47:50;;;;;;;9.63;4.03;;;22.70;1.00;;;;;;4977318;28;20441;-87
2023/10/09 15:50:16;;;;;;;9.57;3.50;;;23.00;1.00;;;;;;4996416;28;20391;-87
2023/10/09 15:52:42;;;;;;;12.83;4.47;;;22.70;1.00;;;;;;4968247;28;20547;-86
2023/10/09 15:55:13;;;;;;;10.93;3.55;;;22.00;1.00;;;;;;4975488;28;20482;-87
2023/10/09 15:57:39;;;;;;;9.50;3.90;;;22.20;1.00;;;;;;4957802;28;20403;-86
2023/10/09 16:00:13;;;;;;;12.07;4.68;;;21.70;1.00;;;;;;4957775;28;20399;-86